createdAt,value
2022-08-01T00:02:00.398Z,13.43
2022-08-01T00:04:28.679Z,16.93
2022-08-01T00:06:56.867Z,15.37
2022-08-01T00:09:25.096Z,17.77
2022-08-01T00:11:59.766Z,15.70
2022-08-01T00:14:32.456Z,15.07
2022-08-01T00:17:07.441Z,14.93
2022-08-01T00:19:37.606Z,13.93
2022-08-01T00:22:06.068Z,14.07
2022-08-01T00:24:34.587Z,12.37
2022-08-01T00:27:04.134Z,14.60
2022-08-01T00:30:12.078Z,14.63
2022-08-01T00:32:20.544Z,11.90
2022-08-01T00:34:48.782Z,12.77
2022-08-01T00:37:17.629Z,12.93
2022-08-01T00:39:45.794Z,14.13
2022-08-01T00:42:18.537Z,13.73
2022-08-01T00:44:46.685Z,14.93
2022-08-01T00:47:18.152Z,13.80
2022-08-01T00:49:46.427Z,14.07
2022-08-01T00:52:17.679Z,9.67
2022-08-01T00:54:46.383Z,10.13
2022-08-01T00:57:16.011Z,9.63
2022-08-01T00:59:56.154Z,12.00
2022-08-01T01:02:25.036Z,10.33
2022-08-01T01:04:53.176Z,9.63
2022-08-01T01:07:31.565Z,11.33
2022-08-01T01:10:05.816Z,10.50
2022-08-01T01:12:41.809Z,10.97
2022-08-01T01:15:17.951Z,8.90
2022-08-01T01:17:52.076Z,10.40
2022-08-01T01:20:23.662Z,10.50
2022-08-01T01:23:09.599Z,11.33
2022-08-01T01:26:08.073Z,8.70
2022-08-01T01:28:48.068Z,9.93
2022-08-01T01:31:23.731Z,11.03
2022-08-01T01:33:53.084Z,11.33
2022-08-01T01:36:24.959Z,10.17
2022-08-01T01:38:55.021Z,9.30
2022-08-01T01:41:24.410Z,11.67
2022-08-01T01:43:54.095Z,10.93
2022-08-01T01:46:27.950Z,10.33
2022-08-01T01:48:58.414Z,9.00
2022-08-01T01:51:29.544Z,11.67
2022-08-01T01:53:59.915Z,10.07
2022-08-01T01:56:29.743Z,10.33
2022-08-01T01:59:03.797Z,9.93
2022-08-01T02:01:58.748Z,8.53
2022-08-01T02:04:26.646Z,7.23
2022-08-01T02:06:55.781Z,6.53
2022-08-01T02:09:25.583Z,6.80
2022-08-01T02:12:07.544Z,7.53
2022-08-01T02:14:40.958Z,7.77
2022-08-01T02:17:13.304Z,11.23
2022-08-01T02:19:41.788Z,7.40
2022-08-01T02:22:13.875Z,8.53
2022-08-01T02:24:51.638Z,8.43
2022-08-01T02:27:28.135Z,5.40
2022-08-01T02:30:03.495Z,5.93
2022-08-01T02:32:39.077Z,7.73
2022-08-01T02:35:12.094Z,7.07
2022-08-01T02:37:41.711Z,9.77
2022-08-01T02:40:15.437Z,5.70
2022-08-01T02:42:48.681Z,6.13
2022-08-01T02:45:20.074Z,11.33
2022-08-01T02:47:52.401Z,7.47
2022-08-01T02:50:21.331Z,9.03
2022-08-01T02:52:52.997Z,6.63
2022-08-01T02:55:23.689Z,5.80
2022-08-01T02:58:00.096Z,6.43
2022-08-01T03:00:30.351Z,4.43
2022-08-01T03:03:01.864Z,5.37
2022-08-01T03:05:30.605Z,5.63
2022-08-01T03:08:02.713Z,5.00
2022-08-01T03:10:33.659Z,7.10
2022-08-01T03:13:03.619Z,5.00
2022-08-01T03:15:36.770Z,4.67
2022-08-01T03:18:09.062Z,7.77
2022-08-01T03:20:37.687Z,6.23
2022-08-01T03:23:09.865Z,6.50
2022-08-01T03:25:41.880Z,5.43
2022-08-01T03:28:11.240Z,10.30
2022-08-01T03:30:41.565Z,9.47
2022-08-01T03:33:14.500Z,9.10
2022-08-01T03:35:57.393Z,8.20
2022-08-01T03:38:29.412Z,11.37
2022-08-01T03:41:01.767Z,14.03
2022-08-01T03:43:39.466Z,9.30
2022-08-01T03:46:10.908Z,9.87
2022-08-01T03:48:45.673Z,9.27
2022-08-01T03:51:16.070Z,10.97
2022-08-01T03:53:49.915Z,9.17
2022-08-01T03:56:21.545Z,10.27
2022-08-01T03:58:52.701Z,8.37
2022-08-01T04:01:21.564Z,13.53
2022-08-01T04:03:51.604Z,9.67
2022-08-01T04:06:19.879Z,10.07
2022-08-01T04:08:56.598Z,10.93
2022-08-01T04:11:29.879Z,8.67
2022-08-01T04:13:58.546Z,11.40
2022-08-01T04:16:27.485Z,10.73
2022-08-01T04:18:57.335Z,10.07
2022-08-01T04:21:29.629Z,9.33
2022-08-01T04:24:04.437Z,8.70
2022-08-01T04:26:34.588Z,12.13
2022-08-01T04:29:05.842Z,10.50
2022-08-01T04:31:35.178Z,10.10
2022-08-01T04:34:06.936Z,11.83
2022-08-01T04:36:39.183Z,8.77
2022-08-01T04:39:08.988Z,15.40
2022-08-01T04:41:38.723Z,9.90
2022-08-01T04:44:07.806Z,14.20
2022-08-01T04:46:37.838Z,10.57
2022-08-01T04:49:10.392Z,11.07
2022-08-01T04:51:38.650Z,9.50
2022-08-01T04:54:08.360Z,12.17
2022-08-01T04:56:36.574Z,12.17
2022-08-01T04:59:22.295Z,12.50
2022-08-01T05:01:53.264Z,13.33
2022-08-01T05:04:22.742Z,13.80
2022-08-01T05:06:50.900Z,12.87
2022-08-01T05:09:19.039Z,10.63
2022-08-01T05:11:47.177Z,14.00
2022-08-01T05:14:15.486Z,13.23
2022-08-01T05:16:43.687Z,15.23
2022-08-01T05:19:11.920Z,12.03
2022-08-01T05:21:41.459Z,13.80
2022-08-01T05:24:09.738Z,15.33
2022-08-01T05:26:39.641Z,20.93
2022-08-01T05:29:08.146Z,13.77
2022-08-01T05:31:36.399Z,12.77
2022-08-01T05:34:06.049Z,12.03
2022-08-01T05:36:44.691Z,24.13
2022-08-01T05:39:13.010Z,15.57
2022-08-01T05:41:41.811Z,13.87
2022-08-01T05:44:11.374Z,14.07
2022-08-01T05:46:39.767Z,15.67
2022-08-01T05:49:08.336Z,17.73
2022-08-01T05:51:38.877Z,12.87
2022-08-01T05:54:08.475Z,12.20
2022-08-01T05:56:36.632Z,17.13
2022-08-01T05:59:05.108Z,12.90
2022-08-01T06:01:33.791Z,9.90
2022-08-01T06:04:01.996Z,15.23
2022-08-01T06:06:30.259Z,15.87
2022-08-01T06:08:58.460Z,11.60
2022-08-01T06:11:28.011Z,15.77
2022-08-01T06:13:56.149Z,14.67
2022-08-01T06:16:24.517Z,10.27
2022-08-01T06:18:56.528Z,12.13
2022-08-01T06:21:25.116Z,12.57
2022-08-01T06:23:53.357Z,16.60
2022-08-01T06:26:22.056Z,14.80
2022-08-01T06:28:51.544Z,15.53
2022-08-01T06:31:19.754Z,14.00
2022-08-01T06:33:47.943Z,13.70
2022-08-01T06:36:16.088Z,15.10
2022-08-01T06:38:44.236Z,12.73
2022-08-01T06:41:14.944Z,14.77
2022-08-01T06:43:43.068Z,16.23
2022-08-01T06:46:12.627Z,8.73
2022-08-01T06:48:41.006Z,15.97
2022-08-01T06:51:14.850Z,15.03
2022-08-01T06:53:45.467Z,10.83
2022-08-01T06:56:13.847Z,11.40
2022-08-01T06:58:42.119Z,12.23
2022-08-01T07:01:10.745Z,9.57
2022-08-01T07:03:54.063Z,13.77
2022-08-01T07:06:24.698Z,15.93
2022-08-01T07:08:53.229Z,14.13
2022-08-01T07:11:21.656Z,12.20
2022-08-01T07:13:51.525Z,10.23
2022-08-01T07:16:23.083Z,10.37
2022-08-01T07:18:52.834Z,12.63
2022-08-01T07:21:40.031Z,11.97
2022-08-01T07:24:13.793Z,13.80
2022-08-01T07:26:52.244Z,14.30
2022-08-01T07:29:23.608Z,10.97
2022-08-01T07:31:51.836Z,11.37
2022-08-01T07:34:21.455Z,14.07
2022-08-01T07:36:49.679Z,8.70
2022-08-01T07:39:17.879Z,8.33
2022-08-01T07:42:05.790Z,11.53
2022-08-01T07:44:36.604Z,10.43
2022-08-01T07:47:05.630Z,11.67
2022-08-01T07:49:40.049Z,14.00
2022-08-01T07:52:09.515Z,11.33
2022-08-01T07:54:38.137Z,13.67
2022-08-01T07:57:08.164Z,11.43
2022-08-01T07:59:38.791Z,10.27
2022-08-01T08:02:10.397Z,10.63
2022-08-01T08:04:40.355Z,11.60
2022-08-01T08:07:08.909Z,8.90
2022-08-01T08:09:38.391Z,10.13
2022-08-01T08:12:08.924Z,13.10
2022-08-01T08:14:37.346Z,11.47
2022-08-01T08:17:06.143Z,7.97
2022-08-01T08:19:38.126Z,12.57
2022-08-01T08:22:09.617Z,11.37
2022-08-01T08:24:46.086Z,10.20
2022-08-01T08:27:15.299Z,11.33
2022-08-01T08:29:43.840Z,11.10
2022-08-01T08:32:13.425Z,13.20
2022-08-01T08:34:44.306Z,11.93
2022-08-01T08:37:13.962Z,7.00
2022-08-01T08:39:42.672Z,7.47
2022-08-01T08:42:14.243Z,8.40
2022-08-01T08:44:44.442Z,8.20
2022-08-01T08:47:20.096Z,8.33
2022-08-01T08:49:50.906Z,8.97
2022-08-01T08:52:24.232Z,8.13
2022-08-01T08:54:53.869Z,8.47
2022-08-01T08:57:23.034Z,7.50
2022-08-01T08:59:55.092Z,9.40
2022-08-01T09:02:24.624Z,7.90
2022-08-01T09:04:53.023Z,11.37
2022-08-01T09:07:23.903Z,9.90
2022-08-01T09:09:52.514Z,9.13
2022-08-01T09:12:21.491Z,12.23
2022-08-01T09:14:54.401Z,8.87
2022-08-01T09:17:25.469Z,5.57
2022-08-01T09:19:57.825Z,7.10
2022-08-01T09:22:35.093Z,7.90
2022-08-01T09:25:10.382Z,10.13
2022-08-01T09:27:43.871Z,7.50
2022-08-01T09:30:17.271Z,6.27
2022-08-01T09:33:11.553Z,8.63
2022-08-01T09:35:56.455Z,7.13
2022-08-01T09:38:28.436Z,8.47
2022-08-01T09:40:58.869Z,7.33
2022-08-01T09:43:29.626Z,8.57
2022-08-01T09:46:00.893Z,9.17
2022-08-01T09:48:29.971Z,6.55
2022-08-01T09:51:07.481Z,7.45
2022-08-01T09:53:52.143Z,4.57
2022-08-01T09:56:24.033Z,4.73
2022-08-01T09:59:02.330Z,6.55
2022-08-01T10:01:44.521Z,7.15
2022-08-01T10:04:15.533Z,5.85
2022-08-01T10:06:50.845Z,7.15
2022-08-01T10:09:40.353Z,7.75
2022-08-01T10:12:15.464Z,6.43
2022-08-01T10:14:46.033Z,7.72
2022-08-01T10:17:20.078Z,10.10
2022-08-01T10:19:51.368Z,5.47
2022-08-01T10:22:22.358Z,5.78
2022-08-01T10:24:57.120Z,6.28
2022-08-01T10:27:38.174Z,5.13
2022-08-01T10:30:19.957Z,10.13
2022-08-01T10:32:55.035Z,9.25
2022-08-01T10:35:46.711Z,6.05
2022-08-01T10:38:15.343Z,4.95
2022-08-01T10:40:46.316Z,6.75
2022-08-01T10:43:21.821Z,5.45
2022-08-01T10:45:55.056Z,7.20
2022-08-01T10:48:31.577Z,10.73
2022-08-01T10:51:17.706Z,6.65
2022-08-01T10:53:54.291Z,5.82
2022-08-01T10:56:26.879Z,6.28
2022-08-01T10:59:06.503Z,7.93
2022-08-01T11:01:44.679Z,4.68
2022-08-01T11:04:17.040Z,7.43
2022-08-01T11:06:56.235Z,5.63
2022-08-01T11:09:36.232Z,7.93
2022-08-01T11:12:13.650Z,8.15
2022-08-01T11:15:28.806Z,4.65
2022-08-01T11:18:01.685Z,7.10
2022-08-01T11:20:33.940Z,6.20
2022-08-01T11:23:29.422Z,9.77
2022-08-01T11:26:29.143Z,6.82
2022-08-01T11:29:21.905Z,7.35
2022-08-01T11:31:52.997Z,5.28
2022-08-01T11:34:21.816Z,4.88
2022-08-01T11:37:09.639Z,7.32
2022-08-01T11:39:38.999Z,7.25
2022-08-01T11:42:23.061Z,5.68
2022-08-01T11:44:53.264Z,4.55
2022-08-01T11:47:49.780Z,5.55
2022-08-01T11:50:35.531Z,5.15
2022-08-01T11:53:06.012Z,3.97
2022-08-01T11:55:36.001Z,5.80
2022-08-01T11:58:06.511Z,5.55
2022-08-01T12:00:37.569Z,4.63
2022-08-01T12:03:21.554Z,5.88
2022-08-01T12:06:01.803Z,3.97
2022-08-01T12:08:35.767Z,3.95
2022-08-01T12:11:06.726Z,5.60
2022-08-01T12:13:45.468Z,4.72
2022-08-01T12:16:15.431Z,3.75
2022-08-01T12:18:44.644Z,4.68
2022-08-01T12:21:16.002Z,3.33
2022-08-01T12:23:44.138Z,4.10
2022-08-01T12:26:29.399Z,4.63
2022-08-01T12:29:00.350Z,4.90
2022-08-01T12:31:38.396Z,5.22
2022-08-01T12:34:27.508Z,5.35
2022-08-01T12:36:56.827Z,3.55
2022-08-01T12:39:31.812Z,6.70
2022-08-01T12:42:00.030Z,4.85
2022-08-01T12:44:30.103Z,4.35
2022-08-01T12:47:00.385Z,3.60
2022-08-01T12:49:30.700Z,6.18
2022-08-01T12:51:59.542Z,5.60
2022-08-01T12:54:27.629Z,4.22
2022-08-01T12:56:56.372Z,4.18
2022-08-01T12:59:27.898Z,6.80
2022-08-01T13:01:59.465Z,4.10
2022-08-01T13:04:31.854Z,3.85
2022-08-01T13:07:00.003Z,6.50
2022-08-01T13:09:29.291Z,2.67
2022-08-01T13:12:04.685Z,3.03
2022-08-01T13:14:33.284Z,3.38
2022-08-01T13:17:01.438Z,2.53
2022-08-01T13:22:35.727Z,4.72
2022-08-01T13:25:20.828Z,5.20
2022-08-01T13:28:17.571Z,5.18
2022-08-01T13:31:01.385Z,3.60
2022-08-01T13:33:42.798Z,4.85
2022-08-01T13:36:11.439Z,3.83
2022-08-01T13:38:59.475Z,4.20
2022-08-01T13:41:27.744Z,5.50
2022-08-01T13:43:58.227Z,2.42
2022-08-01T13:46:29.524Z,3.72
2022-08-01T13:48:59.148Z,4.57
2022-08-01T13:51:33.725Z,4.38
2022-08-01T13:54:03.575Z,3.85
2022-08-01T13:56:31.846Z,5.10
2022-08-01T13:58:59.983Z,3.42
2022-08-01T14:01:34.240Z,3.50
2022-08-01T14:04:03.529Z,2.65
2022-08-01T14:06:31.836Z,2.42
2022-08-01T14:08:59.967Z,4.22
2022-08-01T14:11:37.245Z,3.30
2022-08-01T14:14:08.419Z,3.72
2022-08-01T14:16:38.517Z,3.55
2022-08-01T14:19:07.023Z,4.30
2022-08-01T14:21:35.758Z,2.67
2022-08-01T14:24:03.977Z,5.60
2022-08-01T14:26:36.212Z,3.92
2022-08-01T14:29:04.899Z,3.17
2022-08-01T14:31:34.516Z,3.08
2022-08-01T14:34:03.199Z,3.72
2022-08-01T14:36:38.109Z,3.00
2022-08-01T14:39:07.082Z,4.55
2022-08-01T14:41:44.302Z,4.15
2022-08-01T14:44:14.590Z,2.88
2022-08-01T14:46:57.796Z,3.42
2022-08-01T14:49:29.063Z,2.92
2022-08-01T14:51:57.229Z,5.30
2022-08-01T14:54:29.465Z,4.45
2022-08-01T14:56:59.422Z,4.45
2022-08-01T14:59:27.718Z,3.28
2022-08-01T15:01:55.913Z,5.55
2022-08-01T15:04:24.062Z,3.47
2022-08-01T15:06:52.209Z,3.05
2022-08-01T15:09:23.415Z,5.50
2022-08-01T15:11:51.608Z,3.63
2022-08-01T15:14:39.899Z,4.03
2022-08-01T15:17:08.817Z,4.25
2022-08-01T15:19:40.356Z,4.32
2022-08-01T15:22:10.682Z,5.47
2022-08-01T15:24:38.995Z,3.45
2022-08-01T15:27:07.463Z,5.32
2022-08-01T15:29:37.119Z,4.13
2022-08-01T15:32:08.215Z,5.80
2022-08-01T15:34:37.682Z,4.80
2022-08-01T15:37:07.084Z,4.20
2022-08-01T15:39:37.583Z,6.00
2022-08-01T15:42:12.121Z,5.97
2022-08-01T15:44:46.602Z,5.00
2022-08-01T15:47:14.841Z,3.28
2022-08-01T15:49:43.110Z,3.15
2022-08-01T15:52:21.454Z,4.75
2022-08-01T15:54:51.547Z,3.67
2022-08-01T15:57:19.915Z,3.78
2022-08-01T15:59:49.389Z,2.75
2022-08-01T16:02:17.677Z,4.93
2022-08-01T16:04:45.857Z,4.90
2022-08-01T16:07:13.992Z,5.00
2022-08-01T16:09:42.251Z,4.28
2022-08-01T16:12:10.940Z,4.07
2022-08-01T16:14:39.076Z,3.53
2022-08-01T16:17:08.611Z,3.88
2022-08-01T16:19:36.761Z,5.25
2022-08-01T16:22:05.233Z,3.70
2022-08-01T16:24:33.669Z,6.78
2022-08-01T16:27:01.785Z,4.45
2022-08-01T16:29:31.938Z,4.13
2022-08-01T16:32:06.712Z,3.97
2022-08-01T16:34:52.970Z,3.70
2022-08-01T16:37:23.819Z,4.20
2022-08-01T16:39:51.933Z,5.95
2022-08-01T16:42:27.635Z,7.13
2022-08-01T16:44:56.019Z,5.75
2022-08-01T16:47:24.234Z,5.15
2022-08-01T16:49:53.750Z,3.97
2022-08-01T16:52:28.566Z,5.55
2022-08-01T16:54:58.038Z,6.82
2022-08-01T16:57:26.193Z,4.32
2022-08-01T16:59:54.366Z,4.05
2022-08-01T17:02:25.087Z,3.50
2022-08-01T17:04:56.103Z,3.42
2022-08-01T17:07:24.503Z,4.70
2022-08-01T17:09:52.745Z,5.25
2022-08-01T17:12:22.241Z,4.22
2022-08-01T17:14:51.350Z,4.57
2022-08-01T17:17:19.498Z,4.97
2022-08-01T17:19:54.512Z,4.65
2022-08-01T17:22:27.756Z,4.38
2022-08-01T17:24:58.355Z,4.28
2022-08-01T17:27:26.545Z,3.70
2022-08-01T17:29:57.521Z,4.05
2022-08-01T17:32:28.249Z,6.30
2022-08-01T17:34:56.418Z,4.07
2022-08-01T17:37:27.244Z,6.47
2022-08-01T17:39:55.434Z,8.95
2022-08-01T17:42:25.621Z,4.53
2022-08-01T17:44:57.066Z,5.32
2022-08-01T17:47:49.355Z,5.78
2022-08-01T17:50:15.323Z,4.07
2022-08-01T17:52:46.124Z,6.07
2022-08-01T17:55:55.848Z,4.18
2022-08-01T17:58:05.162Z,5.68
2022-08-01T18:00:34.258Z,6.18
2022-08-01T18:03:02.596Z,4.68
2022-08-01T18:05:59.317Z,7.13
2022-08-01T18:08:31.708Z,6.13
2022-08-01T18:11:00.277Z,3.88
2022-08-01T18:13:29.265Z,4.75
2022-08-01T18:15:58.099Z,7.13
2022-08-01T18:18:33.506Z,3.20
2022-08-01T18:21:02.660Z,4.40
2022-08-01T18:23:33.708Z,5.18
2022-08-01T18:26:07.409Z,4.88
2022-08-01T18:28:41.718Z,3.42
2022-08-01T18:31:16.868Z,5.57
2022-08-01T18:33:47.420Z,3.67
2022-08-01T18:36:32.097Z,4.70
2022-08-01T18:39:10.151Z,5.47
2022-08-01T18:41:40.966Z,4.15
2022-08-01T18:44:12.454Z,4.22
2022-08-01T18:46:41.414Z,3.13
2022-08-01T18:49:12.267Z,4.28
2022-08-01T18:51:44.825Z,6.22
2022-08-01T18:54:16.015Z,4.70
2022-08-01T18:56:45.144Z,6.38
2022-08-01T18:59:15.832Z,5.68
2022-08-01T19:01:44.378Z,7.20
2022-08-01T19:04:17.385Z,5.78
2022-08-01T19:06:48.641Z,5.55
2022-08-01T19:09:20.804Z,5.63
2022-08-01T19:11:49.244Z,6.38
2022-08-01T19:14:17.586Z,13.05
2022-08-01T19:16:45.813Z,6.50
2022-08-01T19:19:27.667Z,5.07
2022-08-01T19:21:56.570Z,5.97
2022-08-01T19:24:26.107Z,5.22
2022-08-01T19:26:56.637Z,6.03
2022-08-01T19:29:36.017Z,6.77
2022-08-01T19:32:06.675Z,6.33
2022-08-01T19:34:37.956Z,5.83
2022-08-01T19:37:06.965Z,6.43
2022-08-01T19:39:36.704Z,6.23
2022-08-01T19:42:05.615Z,10.13
2022-08-01T19:44:36.039Z,5.83
2022-08-01T19:47:06.333Z,8.87
2022-08-01T19:49:34.922Z,6.83
2022-08-01T19:52:05.147Z,5.20
2022-08-01T19:54:38.085Z,7.33
2022-08-01T19:57:09.003Z,7.23
2022-08-01T19:59:39.879Z,7.97
2022-08-01T20:02:09.096Z,7.67
2022-08-01T20:04:37.413Z,11.00
2022-08-01T20:07:09.289Z,7.90
2022-08-01T20:09:41.320Z,8.23
2022-08-01T20:12:10.472Z,6.43
2022-08-01T20:14:38.643Z,7.20
2022-08-01T20:17:09.299Z,8.10
2022-08-01T20:19:37.461Z,8.10
2022-08-01T20:22:07.876Z,9.63
2022-08-01T20:24:45.958Z,10.53
2022-08-01T20:27:16.407Z,10.43
2022-08-01T20:29:46.447Z,6.27
2022-08-01T20:32:15.644Z,9.40
2022-08-01T20:34:46.346Z,5.73
2022-08-01T20:37:14.908Z,5.83
2022-08-01T20:39:45.307Z,5.53
2022-08-01T20:42:14.830Z,8.47
2022-08-01T20:44:46.437Z,5.43
2022-08-01T20:47:15.624Z,4.90
2022-08-01T20:49:46.822Z,6.23
2022-08-01T20:52:19.350Z,6.97
2022-08-01T20:54:48.942Z,6.37
2022-08-01T20:57:25.422Z,6.13
2022-08-01T21:00:01.905Z,4.50
2022-08-01T21:02:42.591Z,9.50
2022-08-01T21:05:14.444Z,7.40
2022-08-01T21:07:51.083Z,4.87
2022-08-01T21:10:26.013Z,8.60
2022-08-01T21:13:03.478Z,8.07
2022-08-01T21:15:34.773Z,7.60
2022-08-01T21:18:12.757Z,8.00
2022-08-01T21:20:49.519Z,8.47
2022-08-01T21:23:34.591Z,8.00
2022-08-01T21:26:07.999Z,8.33
2022-08-01T21:28:54.464Z,7.93
2022-08-01T21:31:37.658Z,7.00
2022-08-01T21:34:12.513Z,6.07
2022-08-01T21:36:45.450Z,10.13
2022-08-01T21:39:14.421Z,11.00
2022-08-01T21:41:56.311Z,7.23
2022-08-01T21:44:35.177Z,8.93
2022-08-01T21:47:04.867Z,7.27
2022-08-01T21:49:33.331Z,6.63
2022-08-01T21:52:09.241Z,7.90
2022-08-01T21:54:59.954Z,7.83
2022-08-01T21:57:45.668Z,10.13
2022-08-01T22:00:25.014Z,9.63
2022-08-01T22:03:15.160Z,8.53
2022-08-01T22:05:50.097Z,8.20
2022-08-01T22:08:30.095Z,7.23
2022-08-01T22:11:01.724Z,9.37
2022-08-01T22:13:31.321Z,5.50
2022-08-01T22:16:00.386Z,7.57
2022-08-01T22:18:29.018Z,8.47
2022-08-01T22:20:57.577Z,10.50
2022-08-01T22:23:25.884Z,8.23
2022-08-01T22:25:57.729Z,8.23
2022-08-01T22:28:26.192Z,9.53
2022-08-01T22:30:56.355Z,8.97
2022-08-01T22:33:25.343Z,9.00
2022-08-01T22:35:56.546Z,7.93
2022-08-01T22:38:26.145Z,9.07
2022-08-01T22:41:00.866Z,6.37
2022-08-01T22:43:37.801Z,8.57
2022-08-01T22:46:26.265Z,9.47
2022-08-01T22:49:03.264Z,10.23
2022-08-01T22:51:54.837Z,9.40
2022-08-01T22:54:31.490Z,8.43
2022-08-01T22:57:07.216Z,6.83
2022-08-01T22:59:49.941Z,9.63
2022-08-01T23:02:21.744Z,5.20
2022-08-01T23:04:51.302Z,8.27
2022-08-01T23:07:23.262Z,8.63
2022-08-01T23:09:54.844Z,8.23
2022-08-01T23:12:25.466Z,8.80
2022-08-01T23:14:56.498Z,7.97
2022-08-01T23:17:29.737Z,10.53
2022-08-01T23:20:00.939Z,13.53
2022-08-01T23:22:32.165Z,10.97
2022-08-01T23:25:05.447Z,12.97
2022-08-01T23:27:51.255Z,10.77
2022-08-01T23:30:28.464Z,9.70
2022-08-01T23:32:58.705Z,11.13
2022-08-01T23:35:28.017Z,8.83
2022-08-01T23:38:02.366Z,9.83
2022-08-01T23:40:32.258Z,11.67
2022-08-01T23:43:01.460Z,9.73
2022-08-01T23:45:36.013Z,7.57
2022-08-01T23:48:20.014Z,10.83
2022-08-01T23:50:48.156Z,9.20
2022-08-01T23:53:16.337Z,10.40
2022-08-01T23:55:44.640Z,9.07
2022-08-01T23:58:12.946Z,12.17
